Quick Links
Menu Close Menu

Nearby METAR Reports

 

KMGE - Dobbins Afb/Mari, Georgia, USA
Distance from station: SSW 6mi, 9km
Updated: Mon, 21-May-2018 3:56pm EDT
Mostly cloudy
Mostly cloudy
 Wind from E
Wind: E 5 mph , 7 km/h
Temperature: 81°F , 27°C
Heat Index: 83°F , 28°C
Dew Point: 64°F , 18°C
Humidity: 58%
Barometer: 30.11 inHg , 1019.6 hPa
Clouds: Mostly cloudy
Visibility: 10 miles , 16 km
Cloud details: Mostly cloudy 4000 ft
Mostly cloudy 12000 ft
Mostly cloudy 25000 ft
2018/05/21 19:56 KMGE 211956Z 10004KT 10SM BKN040 BKN120 BKN250 27/18 A3011 RMK AO2A SLP189 T02660176 $
KRYY - Marietta Mccolum, Georgia, USA
Distance from station: WNW 6mi, 10km
Updated: Mon, 21-May-2018 3:48pm EDT
Mostly cloudy
Mostly cloudy
 Wind from ESE
Wind: ESE 8 mph , 13 km/h
Temperature: 82°F , 28°C
Heat Index: 84°F , 29°C
Dew Point: 64°F , 18°C
Humidity: 55%
Barometer: 30.12 inHg , 1020 hPa
Clouds: Mostly cloudy
Visibility: 10 miles , 16 km
Cloud details: Partly cloudy 4200 ft
Mostly cloudy 11000 ft
2018/05/21 19:48 KRYY 211948Z 12007KT 10SM SCT042 BKN110 28/18 A3012 RMK AO2 SLP919 T02780178
 
KPDK - Peachtree/Dekalb, Georgia, USA
Distance from station: SE 13mi, 22km
Updated: Mon, 21-May-2018 3:53pm EDT
Mostly cloudy
Mostly cloudy
 Wind from varies
Wind: varies 3 mph , 6 km/h
Temperature: 81°F , 27°C
Heat Index: 82°F , 28°C
Dew Point: 63°F , 17°C
Humidity: 54%
Barometer: 30.11 inHg , 1019.6 hPa
Clouds: Mostly cloudy
Visibility: 10 miles , 16 km
Cloud details: Partly cloudy 4100 ft
Mostly cloudy 11000 ft
2018/05/21 19:53 KPDK 211953Z VRB03KT 10SM SCT041 BKN110 27/17 A3011 RMK AO2 SLP181 T02670172
KFTY - Atlanta/Fulton, Georgia, USA
Distance from station: S 15mi, 24km
Updated: Mon, 21-May-2018 3:53pm EDT
Mostly cloudy
Mostly cloudy
 Wind from E
Wind: E 8 mph , 13 km/h
Temperature: 82°F , 28°C
Heat Index: 84°F , 29°C
Dew Point: 64°F , 18°C
Humidity: 55%
Barometer: 30.10 inHg , 1019.3 hPa
Clouds: Mostly cloudy
Visibility: 10 miles , 16 km
Cloud details: Mostly cloudy 11000 ft
2018/05/21 19:53 KFTY 211953Z 10007KT 10SM BKN110 28/18 A3010 RMK AO2 SLP183 T02780183
 
KCNI - Canton/Cherokee, Georgia, USA
Distance from station: N 23mi, 36km
Updated: Mon, 21-May-2018 4:15pm EDT
Partly cloudy
Partly cloudy
 Wind from E
Wind: E 3 mph , 6 km/h
Temperature: 84°F , 29°C
Dew Point: 52°F , 11°C
Humidity: 33%
Barometer: 30.13 inHg , 1020.3 hPa
Clouds: Partly cloudy
Visibility: 10 miles , 16 km
Cloud details: Partly cloudy 4600 ft
Partly cloudy 11000 ft
2018/05/21 20:15 KCNI 212015Z AUTO 10003KT 10SM SCT046 SCT110 29/11 A3013 RMK AO2
KVPC - Cartersville, Georgia, USA
Distance from station: WNW 23mi, 36km
Updated: Mon, 21-May-2018 3:53pm EDT
Few Clouds
Few Clouds
 Wind from varies
Wind: varies 6 mph , 9 km/h
Temperature: 82°F , 28°C
Heat Index: 83°F , 28°C
Dew Point: 63°F , 17°C
Humidity: 51%
Barometer: 30.10 inHg , 1019.3 hPa
Clouds: Few Clouds
Visibility: 10 miles , 16 km
Cloud details: Few Clouds 11000 ft
2018/05/21 19:53 KVPC 211953Z AUTO VRB05KT 10SM FEW110 28/17 A3010 RMK AO2 SLP181 T02780172
 
KATL - Atlanta, Georgia, USA
Distance from station: S 25mi, 40km
Updated: Mon, 21-May-2018 3:52pm EDT
Mostly cloudy
Mostly cloudy
 Wind from ESE
Wind: ESE 10 mph , 17 km/h
Temperature: 81°F , 27°C
Heat Index: 83°F , 28°C
Dew Point: 64°F , 18°C
Humidity: 58%
Barometer: 30.11 inHg , 1019.6 hPa
Clouds: Mostly cloudy
Visibility: 10 miles , 16 km
Cloud details: Few Clouds 4000 ft
Mostly cloudy 11000 ft
Mostly cloudy 25000 ft
2018/05/21 19:52 KATL 211952Z 11009KT 080V140 10SM FEW040TCU BKN110 BKN250 27/18 A3011 RMK AO2 RAB36E49 SLP187 TCU SE MDT CU SE-SW P0000 T02670178
KPUJ - Atlanta/Paulding, Georgia, USA
Distance from station: WSW 26mi, 42km
Updated: Mon, 21-May-2018 4:15pm EDT
Overcast
Overcast
 Wind from SSE
Wind: SSE 6 mph , 9 km/h
Temperature: 79°F , 26°C
Dew Point: 63°F , 17°C
Humidity: 58%
Barometer: 30.12 inHg , 1020 hPa
Clouds: Overcast
Visibility: 10 miles , 16 km
Cloud details: Partly cloudy 3100 ft
Partly cloudy 3900 ft
Overcast 11000 ft
2018/05/21 20:15 KPUJ 212015Z AUTO 15005KT 10SM SCT031 SCT039 OVC110 26/17 A3012 RMK AO2
 
KLZU - Lawrenceville, Georgia, USA
Distance from station: E 30mi, 48km
Updated: Mon, 21-May-2018 3:56pm EDT
Mostly cloudy
Mostly cloudy
 Wind from E
Wind: E 7 mph , 11 km/h
Temperature: 82°F , 28°C
Heat Index: 84°F , 29°C
Dew Point: 64°F , 18°C
Humidity: 55%
Barometer: 30.11 inHg , 1019.6 hPa
Clouds: Mostly cloudy
Visibility: 10 miles , 16 km
Cloud details: Mostly cloudy 4500 ft
2018/05/21 19:56 KLZU 211956Z 08006KT 10SM BKN045 28/18 A3011 RMK AO2 SLP199 T02780178
KJZP - Jasper, Georgia, USA
Distance from station: N 32mi, 51km
Updated: Mon, 21-May-2018 4:15pm EDT
Partly cloudy
Partly cloudy
 Wind from calm
Wind: Calm
Temperature: 81°F , 27°C
Heat Index: 81°F , 27°C
Dew Point: 57°F , 14°C
Humidity: 45%
Barometer: 30.16 inHg , 1021.3 hPa
Clouds: Partly cloudy
Visibility: 10 miles , 16 km
Cloud details: Partly cloudy 4400 ft
Partly cloudy 6500 ft
2018/05/21 20:15 KJZP 212015Z AUTO 00000KT 10SM SCT044 SCT065 27/14 A3016 RMK AO2 T02690139 PNO
 
KCZL - Calhoun, Georgia, USA
Distance from station: NW 40mi, 65km
Updated: Fri, 18-May-2018 7:55pm EDT
NOT Current
Clear
Clear
 Wind from calm
Wind: Calm
Temperature: 75°F , 24°C
Dew Point: 66°F , 19°C
Humidity: 74%
Barometer: 29.89 inHg , 1012.2 hPa
Clouds: Clear
Visibility: 10 miles , 16 km
2018/05/18 23:55 KCZL 182355Z AUTO 00000KT 10SM CLR 24/19 A2989 RMK AO2 T02360194 10296 20236
KGVL - Gainesville, Georgia, USA
Distance from station: ENE 42mi, 68km
Updated: Mon, 21-May-2018 3:53pm EDT
Few Clouds
Few Clouds
 Wind from varies
Wind: varies 3 mph , 6 km/h
Temperature: 82°F , 28°C
Heat Index: 82°F , 28°C
Dew Point: 61°F , 16°C
Humidity: 48%
Barometer: 30.15 inHg , 1021 hPa
Clouds: Few Clouds
Visibility: 10 miles , 16 km
Cloud details: Few Clouds 5000 ft
2018/05/21 19:53 KGVL 211953Z AUTO VRB03KT 10SM FEW050 28/16 A3015 RMK AO2 SLP193 T02830156
 
KHMP - Hampton, Georgia, USA
Distance from station: SSE 43mi, 70km
Updated: Mon, 21-May-2018 4:15pm EDT
Partly cloudy
Partly cloudy
 Wind from E
Wind: E 8 mph , 13 km/h
Temperature: 82°F , 28°C
Heat Index: 84°F , 29°C
Dew Point: 66°F , 19°C
Humidity: 58%
Barometer: 30.11 inHg , 1019.6 hPa
Clouds: Partly cloudy
Visibility: 10 miles , 16 km
Cloud details: Partly cloudy 3100 ft
Partly cloudy 3800 ft
Partly cloudy 4400 ft
2018/05/21 20:15 KHMP 212015Z AUTO 09007KT 10SM SCT031 SCT038 SCT044 28/19 A3011 RMK AO2 T02780193
KCVC - Covington, Georgia, USA
Distance from station: ESE 45mi, 72km
Updated: Mon, 21-May-2018 4:15pm EDT
Overcast
Overcast
 Wind from ESE
Wind: ESE 5 mph , 7 km/h
Temperature: 82°F , 28°C
Heat Index: 84°F , 29°C
Dew Point: 66°F , 19°C
Humidity: 58%
Barometer: 30.10 inHg , 1019.3 hPa
Clouds: Overcast
Visibility: 10 miles , 16 km
Cloud details: Partly cloudy 3500 ft
Overcast 12000 ft
2018/05/21 20:15 KCVC 212015Z AUTO 11004KT 10SM SCT035 OVC120 28/19 A3010 RMK AO2 PNO
 
KFFC - Peachtree City, Georgia, USA
Distance from station: S 45mi, 72km
Updated: Mon, 21-May-2018 3:53pm EDT
Mostly cloudy
Mostly cloudy
 Wind from ENE
Wind: ENE 6 mph , 9 km/h
Temperature: 81°F , 27°C
Heat Index: 83°F , 28°C
Dew Point: 66°F , 19°C
Humidity: 62%
Barometer: 30.10 inHg , 1019.3 hPa
Clouds: Mostly cloudy
Visibility: 10 miles , 16 km
Cloud details: Mostly cloudy 11000 ft
2018/05/21 19:53 KFFC 211953Z AUTO 06005KT 10SM BKN110 27/19 A3010 RMK AO2 SLP189 T02720189
KCTJ - Carrollton/Gray, Georgia, USA
Distance from station: SW 45mi, 73km
Updated: Mon, 21-May-2018 4:15pm EDT
Mostly cloudy
Mostly cloudy
 Wind from ESE
Wind: ESE 5 mph , 7 km/h
Temperature: 77°F , 25°C
Dew Point: 64°F , 18°C
Humidity: 65%
Barometer: 30.14 inHg , 1020.7 hPa
Clouds: Mostly cloudy
Visibility: 10 miles , 16 km
Cloud details: Partly cloudy 3100 ft
Partly cloudy 4200 ft
Mostly cloudy 10000 ft
2018/05/21 20:15 KCTJ 212015Z AUTO 12004KT 10SM SCT031 SCT042 BKN100 25/18 A3014 RMK AO2 T02520178
 
KRMG - Rome, Georgia, USA
Distance from station: WNW 46mi, 74km
Updated: Mon, 21-May-2018 3:53pm EDT
Mostly cloudy
Mostly cloudy
 Wind from SSW
Wind: SSW 8 mph , 13 km/h
Temperature: 82°F , 28°C
Heat Index: 84°F , 29°C
Dew Point: 64°F , 18°C
Humidity: 55%
Barometer: 30.09 inHg , 1019 hPa
Clouds: Mostly cloudy
Visibility: 10 miles , 16 km
Cloud details: Few Clouds 4600 ft
Mostly cloudy 10000 ft
2018/05/21 19:53 KRMG 211953Z AUTO 20007KT 10SM FEW046 BKN100 28/18 A3009 RMK AO2 SLP179 T02830183
KWDR - Winder/Barrow, Georgia, USA
Distance from station: E 47mi, 76km
Updated: Mon, 21-May-2018 3:15pm EDT
NOT Current
Mostly cloudy
Mostly cloudy
 Wind from calm
Wind: Calm
Temperature: 81°F , 27°C
Heat Index: 83°F , 28°C
Dew Point: 64°F , 18°C
Humidity: 58%
Barometer: 30.16 inHg , 1021.3 hPa
Clouds: Mostly cloudy
Visibility: 10 miles , 16 km
Cloud details: Partly cloudy 5000 ft
Partly cloudy 9000 ft
Mostly cloudy 11000 ft
2018/05/21 19:15 KWDR 211915Z AUTO 00000KT 10SM SCT050 SCT090 BKN110 27/18 A3016 RMK AO1
 
KCCO - Newnan, Georgia, USA
Distance from station: SSW 49mi, 80km
Updated: Mon, 21-May-2018 4:15pm EDT
Partly cloudy
Partly cloudy
 Wind from E
Wind: E 7 mph , 11 km/h
Temperature: 81°F , 27°C
Heat Index: 83°F , 28°C
Dew Point: 64°F , 18°C
Humidity: 58%
Barometer: 30.10 inHg , 1019.3 hPa
Clouds: Partly cloudy
Visibility: 10 miles , 16 km
Cloud details: Partly cloudy 3500 ft
Partly cloudy 4500 ft
2018/05/21 20:15 KCCO 212015Z AUTO 09006KT 10SM SCT035 SCT045 27/18 A3010 RMK AO2 T02730184